sensor_id;sensor_type;location;lat;lon;timestamp;P1;durP1;ratioP1;P2;durP2;ratioP2
72611;SDS011;60655;52.182;4.474;2023-07-20T00:00:21;1.85;;;0.90;;
72611;SDS011;60655;52.182;4.474;2023-07-20T00:02:22;2.90;;;0.60;;
72611;SDS011;60655;52.182;4.474;2023-07-20T00:04:23;0.70;;;0.50;;
72611;SDS011;60655;52.182;4.474;2023-07-20T00:06:24;1.40;;;0.60;;
72611;SDS011;60655;52.182;4.474;2023-07-20T00:08:26;0.85;;;0.50;;
72611;SDS011;60655;52.182;4.474;2023-07-20T00:10:27;1.73;;;0.60;;
72611;SDS011;60655;52.182;4.474;2023-07-20T00:12:28;1.73;;;0.50;;
72611;SDS011;60655;52.182;4.474;2023-07-20T00:14:29;2.08;;;0.50;;
72611;SDS011;60655;52.182;4.474;2023-07-20T00:16:30;2.00;;;0.60;;
72611;SDS011;60655;52.182;4.474;2023-07-20T00:18:32;1.38;;;0.45;;
72611;SDS011;60655;52.182;4.474;2023-07-20T00:20:33;1.20;;;0.65;;
72611;SDS011;60655;52.182;4.474;2023-07-20T00:22:34;1.23;;;0.50;;
72611;SDS011;60655;52.182;4.474;2023-07-20T00:24:35;1.70;;;0.60;;
72611;SDS011;60655;52.182;4.474;2023-07-20T00:26:36;1.95;;;0.70;;
72611;SDS011;60655;52.182;4.474;2023-07-20T00:28:37;1.40;;;0.60;;
72611;SDS011;60655;52.182;4.474;2023-07-20T00:30:38;0.90;;;0.47;;
72611;SDS011;60655;52.182;4.474;2023-07-20T00:32:39;3.33;;;0.57;;
72611;SDS011;60655;52.182;4.474;2023-07-20T00:34:40;1.52;;;0.50;;
72611;SDS011;60655;52.182;4.474;2023-07-20T00:36:41;1.02;;;0.40;;
72611;SDS011;60655;52.182;4.474;2023-07-20T00:38:43;0.63;;;0.50;;
72611;SDS011;60655;52.182;4.474;2023-07-20T00:40:44;1.52;;;0.50;;
72611;SDS011;60655;52.182;4.474;2023-07-20T00:42:45;1.20;;;0.43;;
72611;SDS011;60655;52.182;4.474;2023-07-20T00:44:46;1.88;;;0.80;;
72611;SDS011;60655;52.182;4.474;2023-07-20T00:46:47;1.88;;;0.70;;
72611;SDS011;60655;52.182;4.474;2023-07-20T00:48:48;1.50;;;0.70;;
72611;SDS011;60655;52.182;4.474;2023-07-20T00:50:49;3.08;;;0.63;;
72611;SDS011;60655;52.182;4.474;2023-07-20T00:52:51;1.50;;;0.63;;
72611;SDS011;60655;52.182;4.474;2023-07-20T00:54:52;2.05;;;0.52;;
72611;SDS011;60655;52.182;4.474;2023-07-20T00:56:56;1.13;;;0.50;;
72611;SDS011;60655;52.182;4.474;2023-07-20T00:58:59;2.40;;;0.52;;
72611;SDS011;60655;52.182;4.474;2023-07-20T01:01:00;3.25;;;0.65;;
72611;SDS011;60655;52.182;4.474;2023-07-20T01:03:01;2.30;;;0.65;;
72611;SDS011;60655;52.182;4.474;2023-07-20T01:05:02;2.70;;;0.60;;
72611;SDS011;60655;52.182;4.474;2023-07-20T01:07:10;3.25;;;0.70;;
72611;SDS011;60655;52.182;4.474;2023-07-20T01:09:25;2.15;;;0.60;;
72611;SDS011;60655;52.182;4.474;2023-07-20T01:13:38;1.90;;;0.57;;
72611;SDS011;60655;52.182;4.474;2023-07-20T01:15:40;1.45;;;0.70;;
72611;SDS011;60655;52.182;4.474;2023-07-20T01:17:41;1.63;;;0.60;;
72611;SDS011;60655;52.182;4.474;2023-07-20T01:19:41;3.63;;;0.70;;
72611;SDS011;60655;52.182;4.474;2023-07-20T01:21:51;2.00;;;0.60;;
72611;SDS011;60655;52.182;4.474;2023-07-20T01:26:45;0.52;;;0.40;;
72611;SDS011;60655;52.182;4.474;2023-07-20T01:30:08;4.68;;;0.52;;
72611;SDS011;60655;52.182;4.474;2023-07-20T01:31:59;0.77;;;0.45;;
72611;SDS011;60655;52.182;4.474;2023-07-20T01:34:05;1.35;;;0.60;;
72611;SDS011;60655;52.182;4.474;2023-07-20T01:36:09;2.67;;;0.60;;
72611;SDS011;60655;52.182;4.474;2023-07-20T01:38:11;2.95;;;0.50;;
72611;SDS011;60655;52.182;4.474;2023-07-20T01:40:15;2.03;;;0.65;;
72611;SDS011;60655;52.182;4.474;2023-07-20T01:42:17;3.42;;;0.52;;
72611;SDS011;60655;52.182;4.474;2023-07-20T01:44:18;1.60;;;0.50;;
72611;SDS011;60655;52.182;4.474;2023-07-20T01:46:19;1.83;;;0.50;;
72611;SDS011;60655;52.182;4.474;2023-07-20T01:48:20;2.30;;;0.52;;
72611;SDS011;60655;52.182;4.474;2023-07-20T01:50:21;1.67;;;0.60;;
72611;SDS011;60655;52.182;4.474;2023-07-20T01:52:22;1.33;;;0.60;;
72611;SDS011;60655;52.182;4.474;2023-07-20T01:54:23;1.30;;;0.50;;
72611;SDS011;60655;52.182;4.474;2023-07-20T01:56:26;0.73;;;0.50;;
72611;SDS011;60655;52.182;4.474;2023-07-20T01:58:27;2.53;;;0.50;;
72611;SDS011;60655;52.182;4.474;2023-07-20T02:00:28;2.78;;;0.70;;
72611;SDS011;60655;52.182;4.474;2023-07-20T02:02:29;2.70;;;0.70;;
72611;SDS011;60655;52.182;4.474;2023-07-20T02:04:30;1.38;;;0.65;;
72611;SDS011;60655;52.182;4.474;2023-07-20T02:06:31;3.85;;;0.50;;
72611;SDS011;60655;52.182;4.474;2023-07-20T02:08:32;1.13;;;0.68;;
72611;SDS011;60655;52.182;4.474;2023-07-20T02:10:33;1.45;;;0.60;;
72611;SDS011;60655;52.182;4.474;2023-07-20T02:12:35;1.67;;;0.50;;
72611;SDS011;60655;52.182;4.474;2023-07-20T02:14:36;4.05;;;0.70;;
72611;SDS011;60655;52.182;4.474;2023-07-20T02:16:37;2.80;;;0.60;;
72611;SDS011;60655;52.182;4.474;2023-07-20T02:18:38;2.45;;;0.60;;
72611;SDS011;60655;52.182;4.474;2023-07-20T02:20:40;2.03;;;0.65;;
72611;SDS011;60655;52.182;4.474;2023-07-20T02:22:41;3.75;;;0.70;;
72611;SDS011;60655;52.182;4.474;2023-07-20T02:24:42;1.27;;;0.60;;
72611;SDS011;60655;52.182;4.474;2023-07-20T02:26:43;0.65;;;0.52;;
72611;SDS011;60655;52.182;4.474;2023-07-20T02:28:44;2.40;;;0.70;;
72611;SDS011;60655;52.182;4.474;2023-07-20T02:30:45;2.03;;;0.63;;
72611;SDS011;60655;52.182;4.474;2023-07-20T02:32:47;3.03;;;0.90;;
72611;SDS011;60655;52.182;4.474;2023-07-20T02:34:49;1.50;;;0.60;;
72611;SDS011;60655;52.182;4.474;2023-07-20T02:36:50;1.83;;;0.77;;
72611;SDS011;60655;52.182;4.474;2023-07-20T02:38:51;1.02;;;0.50;;
72611;SDS011;60655;52.182;4.474;2023-07-20T02:40:51;4.25;;;0.80;;
72611;SDS011;60655;52.182;4.474;2023-07-20T02:42:52;2.55;;;0.90;;
72611;SDS011;60655;52.182;4.474;2023-07-20T02:44:53;2.35;;;0.80;;
72611;SDS011;60655;52.182;4.474;2023-07-20T02:46:54;1.85;;;0.80;;
72611;SDS011;60655;52.182;4.474;2023-07-20T02:48:55;1.88;;;0.50;;
72611;SDS011;60655;52.182;4.474;2023-07-20T02:50:56;4.03;;;0.93;;
72611;SDS011;60655;52.182;4.474;2023-07-20T02:52:57;1.63;;;0.73;;
72611;SDS011;60655;52.182;4.474;2023-07-20T02:54:58;1.02;;;0.60;;
72611;SDS011;60655;52.182;4.474;2023-07-20T02:56:59;2.65;;;0.98;;
72611;SDS011;60655;52.182;4.474;2023-07-20T02:59:03;1.70;;;0.70;;
72611;SDS011;60655;52.182;4.474;2023-07-20T03:01:04;1.55;;;0.55;;
72611;SDS011;60655;52.182;4.474;2023-07-20T03:03:05;1.35;;;0.60;;
72611;SDS011;60655;52.182;4.474;2023-07-20T03:05:09;3.30;;;0.77;;
72611;SDS011;60655;52.182;4.474;2023-07-20T03:07:10;2.67;;;0.77;;
72611;SDS011;60655;52.182;4.474;2023-07-20T03:09:11;2.08;;;0.73;;
72611;SDS011;60655;52.182;4.474;2023-07-20T03:11:13;1.02;;;0.63;;
72611;SDS011;60655;52.182;4.474;2023-07-20T03:13:15;3.15;;;0.73;;
72611;SDS011;60655;52.182;4.474;2023-07-20T03:15:17;1.08;;;0.60;;
72611;SDS011;60655;52.182;4.474;2023-07-20T03:17:18;1.85;;;0.80;;
72611;SDS011;60655;52.182;4.474;2023-07-20T03:19:21;1.58;;;0.70;;
72611;SDS011;60655;52.182;4.474;2023-07-20T03:21:22;1.42;;;0.70;;
72611;SDS011;60655;52.182;4.474;2023-07-20T03:23:23;1.73;;;0.75;;
72611;SDS011;60655;52.182;4.474;2023-07-20T03:25:24;3.92;;;1.08;;
72611;SDS011;60655;52.182;4.474;2023-07-20T03:27:25;1.63;;;0.90;;
72611;SDS011;60655;52.182;4.474;2023-07-20T03:29:26;2.67;;;0.80;;
72611;SDS011;60655;52.182;4.474;2023-07-20T03:31:26;1.38;;;0.80;;
72611;SDS011;60655;52.182;4.474;2023-07-20T03:33:28;1.77;;;0.90;;
72611;SDS011;60655;52.182;4.474;2023-07-20T03:35:30;1.42;;;0.90;;
72611;SDS011;60655;52.182;4.474;2023-07-20T03:37:31;1.27;;;0.70;;
72611;SDS011;60655;52.182;4.474;2023-07-20T03:39:32;5.60;;;0.90;;
72611;SDS011;60655;52.182;4.474;2023-07-20T03:41:33;1.50;;;0.80;;
72611;SDS011;60655;52.182;4.474;2023-07-20T03:43:34;2.28;;;0.80;;
72611;SDS011;60655;52.182;4.474;2023-07-20T03:45:35;2.20;;;1.10;;
72611;SDS011;60655;52.182;4.474;2023-07-20T03:47:36;2.05;;;0.90;;
72611;SDS011;60655;52.182;4.474;2023-07-20T03:49:37;1.83;;;0.88;;
72611;SDS011;60655;52.182;4.474;2023-07-20T03:51:39;2.42;;;1.02;;
72611;SDS011;60655;52.182;4.474;2023-07-20T03:53:40;3.53;;;1.10;;
72611;SDS011;60655;52.182;4.474;2023-07-20T03:55:42;3.55;;;1.10;;
72611;SDS011;60655;52.182;4.474;2023-07-20T03:57:46;2.70;;;1.23;;
72611;SDS011;60655;52.182;4.474;2023-07-20T03:59:47;4.07;;;1.05;;
72611;SDS011;60655;52.182;4.474;2023-07-20T04:01:49;2.92;;;1.10;;
72611;SDS011;60655;52.182;4.474;2023-07-20T04:03:49;2.97;;;1.10;;
72611;SDS011;60655;52.182;4.474;2023-07-20T04:05:50;4.07;;;1.33;;
72611;SDS011;60655;52.182;4.474;2023-07-20T04:07:51;3.22;;;1.20;;
72611;SDS011;60655;52.182;4.474;2023-07-20T04:09:53;2.53;;;1.23;;
72611;SDS011;60655;52.182;4.474;2023-07-20T04:11:53;2.30;;;1.10;;
72611;SDS011;60655;52.182;4.474;2023-07-20T04:13:55;4.03;;;1.30;;
72611;SDS011;60655;52.182;4.474;2023-07-20T04:15:56;3.10;;;1.27;;
72611;SDS011;60655;52.182;4.474;2023-07-20T04:17:57;2.35;;;1.20;;
72611;SDS011;60655;52.182;4.474;2023-07-20T04:19:58;4.22;;;1.20;;
72611;SDS011;60655;52.182;4.474;2023-07-20T04:21:59;3.80;;;1.10;;
72611;SDS011;60655;52.182;4.474;2023-07-20T04:24:00;3.10;;;1.10;;
72611;SDS011;60655;52.182;4.474;2023-07-20T04:26:01;2.22;;;1.20;;
72611;SDS011;60655;52.182;4.474;2023-07-20T04:28:02;3.45;;;1.30;;
72611;SDS011;60655;52.182;4.474;2023-07-20T04:30:03;3.70;;;1.33;;
72611;SDS011;60655;52.182;4.474;2023-07-20T04:32:05;4.30;;;1.52;;
72611;SDS011;60655;52.182;4.474;2023-07-20T04:34:06;3.45;;;1.40;;
72611;SDS011;60655;52.182;4.474;2023-07-20T04:36:07;2.25;;;1.15;;
72611;SDS011;60655;52.182;4.474;2023-07-20T04:38:09;3.92;;;1.30;;
72611;SDS011;60655;52.182;4.474;2023-07-20T04:40:10;2.85;;;1.20;;
72611;SDS011;60655;52.182;4.474;2023-07-20T04:42:12;2.25;;;1.20;;
72611;SDS011;60655;52.182;4.474;2023-07-20T04:44:13;3.63;;;1.33;;
72611;SDS011;60655;52.182;4.474;2023-07-20T04:46:14;3.05;;;1.10;;
72611;SDS011;60655;52.182;4.474;2023-07-20T04:48:16;3.35;;;1.30;;
72611;SDS011;60655;52.182;4.474;2023-07-20T04:50:17;3.78;;;1.35;;
72611;SDS011;60655;52.182;4.474;2023-07-20T04:52:18;4.10;;;1.02;;
72611;SDS011;60655;52.182;4.474;2023-07-20T04:54:19;4.72;;;1.27;;
72611;SDS011;60655;52.182;4.474;2023-07-20T04:56:20;6.93;;;1.30;;
72611;SDS011;60655;52.182;4.474;2023-07-20T04:58:23;5.65;;;1.50;;
72611;SDS011;60655;52.182;4.474;2023-07-20T05:00:25;9.02;;;1.27;;
72611;SDS011;60655;52.182;4.474;2023-07-20T05:02:25;5.97;;;1.40;;
72611;SDS011;60655;52.182;4.474;2023-07-20T05:04:26;6.53;;;1.52;;
72611;SDS011;60655;52.182;4.474;2023-07-20T05:06:27;4.30;;;1.00;;
72611;SDS011;60655;52.182;4.474;2023-07-20T05:08:28;2.85;;;1.20;;
72611;SDS011;60655;52.182;4.474;2023-07-20T05:10:29;3.97;;;1.00;;
72611;SDS011;60655;52.182;4.474;2023-07-20T05:12:30;3.10;;;0.90;;
72611;SDS011;60655;52.182;4.474;2023-07-20T05:14:31;2.97;;;0.90;;
72611;SDS011;60655;52.182;4.474;2023-07-20T05:16:32;3.10;;;1.00;;
72611;SDS011;60655;52.182;4.474;2023-07-20T05:18:33;3.00;;;1.10;;
72611;SDS011;60655;52.182;4.474;2023-07-20T05:20:35;2.25;;;1.00;;
72611;SDS011;60655;52.182;4.474;2023-07-20T05:22:36;2.40;;;0.90;;
72611;SDS011;60655;52.182;4.474;2023-07-20T05:24:40;3.42;;;0.90;;
72611;SDS011;60655;52.182;4.474;2023-07-20T05:26:41;1.95;;;0.80;;
72611;SDS011;60655;52.182;4.474;2023-07-20T05:28:42;2.10;;;0.90;;
72611;SDS011;60655;52.182;4.474;2023-07-20T05:30:42;1.95;;;0.93;;
72611;SDS011;60655;52.182;4.474;2023-07-20T05:32:44;2.47;;;1.15;;
72611;SDS011;60655;52.182;4.474;2023-07-20T05:34:52;2.30;;;0.90;;
72611;SDS011;60655;52.182;4.474;2023-07-20T05:36:55;5.85;;;1.20;;
72611;SDS011;60655;52.182;4.474;2023-07-20T05:38:56;2.85;;;1.00;;
72611;SDS011;60655;52.182;4.474;2023-07-20T05:40:59;2.15;;;0.70;;
72611;SDS011;60655;52.182;4.474;2023-07-20T05:43:04;2.58;;;1.10;;
72611;SDS011;60655;52.182;4.474;2023-07-20T05:45:05;2.65;;;1.20;;
72611;SDS011;60655;52.182;4.474;2023-07-20T05:47:06;2.75;;;1.20;;
72611;SDS011;60655;52.182;4.474;2023-07-20T05:49:07;2.72;;;1.10;;
72611;SDS011;60655;52.182;4.474;2023-07-20T05:51:09;3.03;;;1.02;;
72611;SDS011;60655;52.182;4.474;2023-07-20T05:53:10;2.13;;;1.00;;
72611;SDS011;60655;52.182;4.474;2023-07-20T05:55:11;3.45;;;1.20;;
72611;SDS011;60655;52.182;4.474;2023-07-20T05:57:11;4.30;;;1.33;;
72611;SDS011;60655;52.182;4.474;2023-07-20T05:59:13;4.43;;;1.17;;
72611;SDS011;60655;52.182;4.474;2023-07-20T06:01:14;3.47;;;1.02;;
72611;SDS011;60655;52.182;4.474;2023-07-20T06:03:15;2.78;;;0.93;;
72611;SDS011;60655;52.182;4.474;2023-07-20T06:05:22;2.63;;;1.00;;
72611;SDS011;60655;52.182;4.474;2023-07-20T06:07:24;3.33;;;1.17;;
72611;SDS011;60655;52.182;4.474;2023-07-20T06:09:25;2.88;;;1.00;;
72611;SDS011;60655;52.182;4.474;2023-07-20T06:11:26;3.15;;;1.05;;
72611;SDS011;60655;52.182;4.474;2023-07-20T06:13:27;2.83;;;0.98;;
72611;SDS011;60655;52.182;4.474;2023-07-20T06:15:30;1.80;;;0.90;;
72611;SDS011;60655;52.182;4.474;2023-07-20T06:17:32;3.85;;;1.20;;
72611;SDS011;60655;52.182;4.474;2023-07-20T06:19:33;3.97;;;1.10;;
72611;SDS011;60655;52.182;4.474;2023-07-20T06:21:34;2.40;;;1.02;;
72611;SDS011;60655;52.182;4.474;2023-07-20T06:23:35;1.73;;;0.98;;
72611;SDS011;60655;52.182;4.474;2023-07-20T06:25:36;1.63;;;0.73;;
72611;SDS011;60655;52.182;4.474;2023-07-20T06:27:37;2.88;;;0.85;;
72611;SDS011;60655;52.182;4.474;2023-07-20T06:29:38;2.22;;;0.90;;
72611;SDS011;60655;52.182;4.474;2023-07-20T06:31:40;4.22;;;0.90;;
72611;SDS011;60655;52.182;4.474;2023-07-20T06:33:41;3.83;;;0.90;;
72611;SDS011;60655;52.182;4.474;2023-07-20T06:35:42;2.47;;;0.90;;
72611;SDS011;60655;52.182;4.474;2023-07-20T06:37:43;1.55;;;0.90;;
72611;SDS011;60655;52.182;4.474;2023-07-20T06:39:44;2.33;;;0.80;;
72611;SDS011;60655;52.182;4.474;2023-07-20T06:41:46;4.75;;;1.20;;
72611;SDS011;60655;52.182;4.474;2023-07-20T06:43:47;1.52;;;0.77;;
72611;SDS011;60655;52.182;4.474;2023-07-20T06:45:52;2.08;;;0.80;;
72611;SDS011;60655;52.182;4.474;2023-07-20T06:47:54;2.90;;;0.90;;
72611;SDS011;60655;52.182;4.474;2023-07-20T06:49:55;2.22;;;0.73;;
72611;SDS011;60655;52.182;4.474;2023-07-20T06:51:56;4.35;;;0.80;;
72611;SDS011;60655;52.182;4.474;2023-07-20T06:53:57;4.47;;;0.90;;
72611;SDS011;60655;52.182;4.474;2023-07-20T06:55:59;2.75;;;0.80;;
72611;SDS011;60655;52.182;4.474;2023-07-20T06:58:00;2.58;;;0.90;;
72611;SDS011;60655;52.182;4.474;2023-07-20T07:00:01;1.55;;;0.77;;
72611;SDS011;60655;52.182;4.474;2023-07-20T07:02:04;3.20;;;0.82;;
72611;SDS011;60655;52.182;4.474;2023-07-20T07:04:06;4.30;;;0.75;;
72611;SDS011;60655;52.182;4.474;2023-07-20T07:06:07;1.60;;;0.70;;
72611;SDS011;60655;52.182;4.474;2023-07-20T07:08:08;2.55;;;0.80;;
72611;SDS011;60655;52.182;4.474;2023-07-20T07:10:09;1.67;;;0.80;;
72611;SDS011;60655;52.182;4.474;2023-07-20T07:12:09;4.80;;;0.75;;
72611;SDS011;60655;52.182;4.474;2023-07-20T07:14:11;1.30;;;0.60;;
72611;SDS011;60655;52.182;4.474;2023-07-20T07:16:12;2.80;;;0.85;;
72611;SDS011;60655;52.182;4.474;2023-07-20T07:18:19;3.95;;;0.98;;
72611;SDS011;60655;52.182;4.474;2023-07-20T07:20:21;1.35;;;0.80;;
72611;SDS011;60655;52.182;4.474;2023-07-20T07:22:22;2.20;;;0.63;;
72611;SDS011;60655;52.182;4.474;2023-07-20T07:24:23;3.42;;;0.75;;
72611;SDS011;60655;52.182;4.474;2023-07-20T07:26:24;2.05;;;0.60;;
72611;SDS011;60655;52.182;4.474;2023-07-20T07:28:25;4.35;;;0.80;;
72611;SDS011;60655;52.182;4.474;2023-07-20T07:30:26;2.00;;;0.70;;
72611;SDS011;60655;52.182;4.474;2023-07-20T07:32:27;3.22;;;0.75;;
72611;SDS011;60655;52.182;4.474;2023-07-20T07:34:27;2.50;;;0.90;;
72611;SDS011;60655;52.182;4.474;2023-07-20T07:36:29;2.85;;;0.60;;
72611;SDS011;60655;52.182;4.474;2023-07-20T07:38:30;1.75;;;1.10;;
72611;SDS011;60655;52.182;4.474;2023-07-20T07:40:30;1.48;;;0.65;;
72611;SDS011;60655;52.182;4.474;2023-07-20T07:42:31;7.63;;;0.90;;
72611;SDS011;60655;52.182;4.474;2023-07-20T07:44:32;0.57;;;0.50;;
72611;SDS011;60655;52.182;4.474;2023-07-20T07:46:33;1.63;;;0.60;;
72611;SDS011;60655;52.182;4.474;2023-07-20T07:48:34;2.58;;;0.68;;
72611;SDS011;60655;52.182;4.474;2023-07-20T07:50:35;1.85;;;0.73;;
72611;SDS011;60655;52.182;4.474;2023-07-20T07:52:36;1.60;;;0.73;;
72611;SDS011;60655;52.182;4.474;2023-07-20T07:54:37;1.25;;;0.73;;
72611;SDS011;60655;52.182;4.474;2023-07-20T07:56:38;2.55;;;0.80;;
72611;SDS011;60655;52.182;4.474;2023-07-20T07:58:39;1.52;;;0.70;;
72611;SDS011;60655;52.182;4.474;2023-07-20T08:00:41;1.20;;;0.80;;
72611;SDS011;60655;52.182;4.474;2023-07-20T08:02:42;1.05;;;0.70;;
72611;SDS011;60655;52.182;4.474;2023-07-20T08:04:43;3.13;;;0.73;;
72611;SDS011;60655;52.182;4.474;2023-07-20T08:06:44;1.75;;;0.70;;
72611;SDS011;60655;52.182;4.474;2023-07-20T08:08:45;2.38;;;0.90;;
72611;SDS011;60655;52.182;4.474;2023-07-20T08:10:46;4.03;;;1.17;;
72611;SDS011;60655;52.182;4.474;2023-07-20T08:12:48;1.23;;;0.60;;
72611;SDS011;60655;52.182;4.474;2023-07-20T08:14:49;3.05;;;0.65;;
72611;SDS011;60655;52.182;4.474;2023-07-20T08:16:49;1.90;;;0.60;;
72611;SDS011;60655;52.182;4.474;2023-07-20T08:18:50;0.73;;;0.50;;
72611;SDS011;60655;52.182;4.474;2023-07-20T08:20:52;1.85;;;0.63;;
72611;SDS011;60655;52.182;4.474;2023-07-20T08:22:54;1.00;;;0.60;;
72611;SDS011;60655;52.182;4.474;2023-07-20T08:24:55;2.95;;;0.75;;
72611;SDS011;60655;52.182;4.474;2023-07-20T08:26:56;2.08;;;0.57;;
72611;SDS011;60655;52.182;4.474;2023-07-20T08:28:57;1.70;;;0.60;;
72611;SDS011;60655;52.182;4.474;2023-07-20T08:30:58;7.25;;;1.00;;
72611;SDS011;60655;52.182;4.474;2023-07-20T08:32:59;2.60;;;0.60;;
72611;SDS011;60655;52.182;4.474;2023-07-20T08:35:00;1.60;;;0.60;;
72611;SDS011;60655;52.182;4.474;2023-07-20T08:37:01;2.45;;;0.60;;
72611;SDS011;60655;52.182;4.474;2023-07-20T08:39:01;1.50;;;0.60;;
72611;SDS011;60655;52.182;4.474;2023-07-20T08:41:04;1.02;;;0.68;;
72611;SDS011;60655;52.182;4.474;2023-07-20T08:43:05;0.90;;;0.57;;
72611;SDS011;60655;52.182;4.474;2023-07-20T08:45:06;1.77;;;0.60;;
72611;SDS011;60655;52.182;4.474;2023-07-20T08:47:09;1.35;;;0.55;;
72611;SDS011;60655;52.182;4.474;2023-07-20T08:49:12;2.10;;;0.60;;
72611;SDS011;60655;52.182;4.474;2023-07-20T08:51:15;2.05;;;0.60;;
72611;SDS011;60655;52.182;4.474;2023-07-20T08:53:17;1.85;;;0.57;;
72611;SDS011;60655;52.182;4.474;2023-07-20T08:55:19;1.80;;;0.68;;
72611;SDS011;60655;52.182;4.474;2023-07-20T08:57:22;1.42;;;0.70;;
72611;SDS011;60655;52.182;4.474;2023-07-20T08:59:23;3.47;;;0.70;;
72611;SDS011;60655;52.182;4.474;2023-07-20T09:01:26;0.93;;;0.57;;
72611;SDS011;60655;52.182;4.474;2023-07-20T09:03:27;1.67;;;0.60;;
72611;SDS011;60655;52.182;4.474;2023-07-20T09:05:28;1.48;;;0.60;;
72611;SDS011;60655;52.182;4.474;2023-07-20T09:07:30;2.05;;;0.70;;
72611;SDS011;60655;52.182;4.474;2023-07-20T09:09:31;1.17;;;0.65;;
72611;SDS011;60655;52.182;4.474;2023-07-20T09:11:32;3.67;;;0.60;;
72611;SDS011;60655;52.182;4.474;2023-07-20T09:13:33;1.42;;;0.55;;
72611;SDS011;60655;52.182;4.474;2023-07-20T09:15:35;1.02;;;0.52;;
72611;SDS011;60655;52.182;4.474;2023-07-20T09:17:36;1.75;;;0.60;;
72611;SDS011;60655;52.182;4.474;2023-07-20T09:19:38;1.85;;;0.70;;
72611;SDS011;60655;52.182;4.474;2023-07-20T09:21:39;1.88;;;0.50;;
72611;SDS011;60655;52.182;4.474;2023-07-20T09:23:40;2.90;;;0.60;;
72611;SDS011;60655;52.182;4.474;2023-07-20T09:25:41;2.30;;;0.70;;
72611;SDS011;60655;52.182;4.474;2023-07-20T09:27:42;1.42;;;0.63;;
72611;SDS011;60655;52.182;4.474;2023-07-20T09:29:49;1.33;;;0.55;;
72611;SDS011;60655;52.182;4.474;2023-07-20T09:32:02;2.58;;;0.70;;
72611;SDS011;60655;52.182;4.474;2023-07-20T09:34:04;1.35;;;0.50;;
72611;SDS011;60655;52.182;4.474;2023-07-20T09:36:06;1.40;;;0.70;;
72611;SDS011;60655;52.182;4.474;2023-07-20T09:38:07;2.45;;;0.63;;
72611;SDS011;60655;52.182;4.474;2023-07-20T09:40:09;1.80;;;0.70;;
72611;SDS011;60655;52.182;4.474;2023-07-20T09:42:13;0.50;;;0.43;;
72611;SDS011;60655;52.182;4.474;2023-07-20T09:44:15;1.40;;;0.50;;
72611;SDS011;60655;52.182;4.474;2023-07-20T09:46:16;1.70;;;0.70;;
72611;SDS011;60655;52.182;4.474;2023-07-20T09:48:17;1.67;;;0.40;;
72611;SDS011;60655;52.182;4.474;2023-07-20T09:50:24;1.15;;;0.55;;
72611;SDS011;60655;52.182;4.474;2023-07-20T09:52:25;2.90;;;0.70;;
72611;SDS011;60655;52.182;4.474;2023-07-20T09:54:26;0.85;;;0.60;;
72611;SDS011;60655;52.182;4.474;2023-07-20T09:56:29;1.52;;;0.55;;
72611;SDS011;60655;52.182;4.474;2023-07-20T09:58:31;2.65;;;0.70;;
72611;SDS011;60655;52.182;4.474;2023-07-20T10:00:34;1.08;;;0.50;;
72611;SDS011;60655;52.182;4.474;2023-07-20T10:02:43;0.63;;;0.40;;
72611;SDS011;60655;52.182;4.474;2023-07-20T10:04:45;3.10;;;0.80;;
72611;SDS011;60655;52.182;4.474;2023-07-20T10:06:46;1.17;;;0.60;;
72611;SDS011;60655;52.182;4.474;2023-07-20T10:08:53;1.17;;;0.60;;
72611;SDS011;60655;52.182;4.474;2023-07-20T10:10:57;2.28;;;0.70;;
72611;SDS011;60655;52.182;4.474;2023-07-20T10:13:01;2.03;;;0.60;;
72611;SDS011;60655;52.182;4.474;2023-07-20T10:17:12;4.57;;;0.60;;
72611;SDS011;60655;52.182;4.474;2023-07-20T10:21:25;1.48;;;0.60;;
72611;SDS011;60655;52.182;4.474;2023-07-20T10:23:28;1.90;;;0.60;;
72611;SDS011;60655;52.182;4.474;2023-07-20T10:25:30;3.08;;;0.60;;
72611;SDS011;60655;52.182;4.474;2023-07-20T10:27:33;0.93;;;0.50;;
72611;SDS011;60655;52.182;4.474;2023-07-20T10:29:34;1.00;;;0.50;;
72611;SDS011;60655;52.182;4.474;2023-07-20T10:31:35;1.05;;;0.55;;
72611;SDS011;60655;52.182;4.474;2023-07-20T10:33:38;2.30;;;0.60;;
72611;SDS011;60655;52.182;4.474;2023-07-20T10:35:52;1.42;;;0.63;;
72611;SDS011;60655;52.182;4.474;2023-07-20T10:37:55;1.25;;;0.60;;
72611;SDS011;60655;52.182;4.474;2023-07-20T10:40:23;1.55;;;0.60;;
72611;SDS011;60655;52.182;4.474;2023-07-20T10:42:38;3.28;;;0.60;;
72611;SDS011;60655;52.182;4.474;2023-07-20T10:44:39;2.60;;;0.90;;
72611;SDS011;60655;52.182;4.474;2023-07-20T10:46:44;3.88;;;0.70;;
72611;SDS011;60655;52.182;4.474;2023-07-20T10:48:59;1.95;;;0.52;;
72611;SDS011;60655;52.182;4.474;2023-07-20T10:53:20;2.47;;;0.60;;
72611;SDS011;60655;52.182;4.474;2023-07-20T10:55:21;2.58;;;0.80;;
72611;SDS011;60655;52.182;4.474;2023-07-20T10:57:29;0.75;;;0.40;;
72611;SDS011;60655;52.182;4.474;2023-07-20T11:01:35;1.77;;;0.60;;
72611;SDS011;60655;52.182;4.474;2023-07-20T11:03:37;1.25;;;0.50;;
72611;SDS011;60655;52.182;4.474;2023-07-20T11:05:40;0.82;;;0.50;;
72611;SDS011;60655;52.182;4.474;2023-07-20T11:07:43;1.58;;;0.60;;
72611;SDS011;60655;52.182;4.474;2023-07-20T11:09:43;0.82;;;0.50;;
72611;SDS011;60655;52.182;4.474;2023-07-20T11:11:48;2.22;;;0.50;;
72611;SDS011;60655;52.182;4.474;2023-07-20T11:13:59;0.98;;;0.60;;
72611;SDS011;60655;52.182;4.474;2023-07-20T11:16:02;2.00;;;0.50;;
72611;SDS011;60655;52.182;4.474;2023-07-20T11:18:13;0.70;;;0.50;;
72611;SDS011;60655;52.182;4.474;2023-07-20T11:20:14;1.45;;;0.50;;
72611;SDS011;60655;52.182;4.474;2023-07-20T11:22:17;0.98;;;0.50;;
72611;SDS011;60655;52.182;4.474;2023-07-20T11:24:18;2.25;;;0.65;;
72611;SDS011;60655;52.182;4.474;2023-07-20T11:26:20;2.50;;;0.70;;
72611;SDS011;60655;52.182;4.474;2023-07-20T11:28:21;2.47;;;0.80;;
72611;SDS011;60655;52.182;4.474;2023-07-20T11:30:21;1.15;;;0.60;;
72611;SDS011;60655;52.182;4.474;2023-07-20T11:32:23;1.27;;;0.40;;
72611;SDS011;60655;52.182;4.474;2023-07-20T11:34:24;0.70;;;0.32;;
72611;SDS011;60655;52.182;4.474;2023-07-20T11:36:25;1.25;;;0.43;;
72611;SDS011;60655;52.182;4.474;2023-07-20T11:38:26;0.80;;;0.40;;
72611;SDS011;60655;52.182;4.474;2023-07-20T11:40:27;1.75;;;0.68;;
72611;SDS011;60655;52.182;4.474;2023-07-20T11:42:28;0.90;;;0.45;;
72611;SDS011;60655;52.182;4.474;2023-07-20T11:44:30;0.77;;;0.50;;
72611;SDS011;60655;52.182;4.474;2023-07-20T11:46:31;1.33;;;0.47;;
72611;SDS011;60655;52.182;4.474;2023-07-20T11:48:33;1.65;;;0.60;;
72611;SDS011;60655;52.182;4.474;2023-07-20T11:50:38;0.30;;;0.30;;
72611;SDS011;60655;52.182;4.474;2023-07-20T11:52:39;2.67;;;0.60;;
72611;SDS011;60655;52.182;4.474;2023-07-20T11:54:41;1.42;;;0.52;;
72611;SDS011;60655;52.182;4.474;2023-07-20T11:56:43;1.65;;;0.50;;
72611;SDS011;60655;52.182;4.474;2023-07-20T11:58:44;2.72;;;0.60;;
72611;SDS011;60655;52.182;4.474;2023-07-20T12:00:46;0.43;;;0.35;;
72611;SDS011;60655;52.182;4.474;2023-07-20T12:02:48;1.40;;;0.65;;
72611;SDS011;60655;52.182;4.474;2023-07-20T12:04:49;0.93;;;0.40;;
72611;SDS011;60655;52.182;4.474;2023-07-20T12:06:50;1.33;;;0.45;;
72611;SDS011;60655;52.182;4.474;2023-07-20T12:08:54;1.35;;;0.60;;
72611;SDS011;60655;52.182;4.474;2023-07-20T12:10:59;0.52;;;0.40;;
72611;SDS011;60655;52.182;4.474;2023-07-20T12:13:01;0.60;;;0.50;;
72611;SDS011;60655;52.182;4.474;2023-07-20T12:17:15;2.03;;;0.60;;
72611;SDS011;60655;52.182;4.474;2023-07-20T12:19:17;1.17;;;0.65;;
72611;SDS011;60655;52.182;4.474;2023-07-20T12:21:18;1.48;;;0.55;;
72611;SDS011;60655;52.182;4.474;2023-07-20T12:23:19;0.73;;;0.40;;
72611;SDS011;60655;52.182;4.474;2023-07-20T12:25:20;0.95;;;0.60;;
72611;SDS011;60655;52.182;4.474;2023-07-20T12:27:21;0.45;;;0.40;;
72611;SDS011;60655;52.182;4.474;2023-07-20T12:29:22;1.38;;;0.60;;
72611;SDS011;60655;52.182;4.474;2023-07-20T12:31:24;2.05;;;0.50;;